MSC Vienna — A8CI9 — position and weather

sailwx.info

Track history (hours):
 
Tides and Currents Weather Stations Pressure Air Temp Water Temp Dewpoint Dewpoint Depression Visibility Wind Speed Wind Dir Waves Ship Positions

MSC Vienna

Last reported at 2015-Apr-22 03:23 UTC. Time now 2015-Apr-28 05:16 UTC.
Position N 08°25' W 015°09'.

Length 260.1 m; beam 32.2 m; draft 12 m.

Type: Ship (hazmat cat A). MMSI: 636090654.

Date/timePositionNaut miles runAvg speedWind from/ knotsBaromVisibWave heightAir tempDewpointWater temp
2015-Apr-22 03:23N 08°25' W 015°09'2119.7
2015-Apr-22 02:19N 08°41' W 015°24'1519.5
2015-Apr-22 01:32N 08°52' W 015°34'1919.6
2015-Apr-22 00:33N 09°06' W 015°47'1919.4
2015-Apr-21 23:33N 09°20' W 016°00'2019.5
2015-Apr-21 22:33N 09°35' W 016°14'1919.1
2015-Apr-21 21:33N 09°49' W 016°27'1918.9
2015-Apr-21 20:33N 10°03' W 016°40'1919.2
2015-Apr-21 19:33N 10°18' W 016°53'2819.1
2015-Apr-21 18:05N 10°40' W 017°10'1019.3
2015-Apr-21 17:33N 10°49' W 017°15'1918.7
2015-Apr-21 16:33N 11°05' W 017°25'8014.8
2015-Apr-21 11:10N 12°24' W 017°30'  
2015-Apr-16 09:31N 29°21' W 013°59'59215.6
2015-Apr-14 19:33N 36°01' W 005°21'21315.2
2015-Apr-14 05:32N 37°09' W 001°10'1717.5
2015-Apr-14 04:33N 37°20' W 000°54'1817.9
2015-Apr-14 03:33N 37°32' W 000°37'1817.5
2015-Apr-14 02:33N 37°46' W 000°23'1817.7
2015-Apr-14 01:33N 38°01' W 000°11'2217.6
2015-Apr-14 00:19N 38°19' E 000°04'1417.8
2015-Apr-13 23:31N 38°31' E 000°14'56 9.3
2015-Apr-13 17:29N 39°23' W 000°13'6 2.8
2015-Apr-13 15:30N 39°26' W 000°19'0 0.0
2015-Apr-13 14:29N 39°26' W 000°19'0 0.0
2015-Apr-13 13:29N 39°26' W 000°19'0 0.0
2015-Apr-13 12:28N 39°26' W 000°19'0 0.0
2015-Apr-13 11:28N 39°26' W 000°19'0 0.0
2015-Apr-13 10:27N 39°26' W 000°19'0 0.0
2015-Apr-13 08:24N 39°26' W 000°19'0 0.0
2015-Apr-13 07:32N 39°26' W 000°19'0 0.0
2015-Apr-13 05:31N 39°26' W 000°19'0 0.0
2015-Apr-13 04:31N 39°26' W 000°19'0 0.3
2015-Apr-13 03:23N 39°26' W 000°19'0 0.0
2015-Apr-13 02:32N 39°26' W 000°19'0 0.0
2015-Apr-13 01:31N 39°26' W 000°19'0 0.0
2015-Apr-13 00:31N 39°26' W 000°19'0 0.0
2015-Apr-12 23:31N 39°26' W 000°19'0 0.0
2015-Apr-12 22:33N 39°26' W 000°19'0 0.0
2015-Apr-12 21:33N 39°26' W 000°19'0 0.0
2015-Apr-12 20:26N 39°26' W 000°19'0 0.0
2015-Apr-12 19:32N 39°26' W 000°19'0 0.0
2015-Apr-12 18:31N 39°26' W 000°19'0 0.0
2015-Apr-12 17:31N 39°26' W 000°19'4 3.9
2015-Apr-12 16:34N 39°26' W 000°15'1514.5
2015-Apr-12 15:33N 39°33' E 000°01'  
Track history (hours):
 
Tides and Currents Weather Stations Pressure Air Temp Water Temp Dewpoint Dewpoint Depression Visibility Wind Speed Wind Dir Waves Ship Positions

MSC Vienna

Last reported at 2015-Apr-22 03:23 UTC. Time now 2015-Apr-28 05:16 UTC.
Position N 08°25' W 015°09'.

Length 260.1 m; beam 32.2 m; draft 12 m.

Type: Ship (hazmat cat A). MMSI: 636090654.

Date/timePositionNaut miles runAvg speedWind from/ knotsBaromVisibWave heightAir tempDewpointWater temp
2015-Apr-22 03:23N 08°25' W 015°09'2119.7
2015-Apr-22 02:19N 08°41' W 015°24'1519.5
2015-Apr-22 01:32N 08°52' W 015°34'1919.6
2015-Apr-22 00:33N 09°06' W 015°47'1919.4
2015-Apr-21 23:33N 09°20' W 016°00'2019.5
2015-Apr-21 22:33N 09°35' W 016°14'1919.1
2015-Apr-21 21:33N 09°49' W 016°27'1918.9
2015-Apr-21 20:33N 10°03' W 016°40'1919.2
2015-Apr-21 19:33N 10°18' W 016°53'2819.1
2015-Apr-21 18:05N 10°40' W 017°10'1019.3
2015-Apr-21 17:33N 10°49' W 017°15'1918.7
2015-Apr-21 16:33N 11°05' W 017°25'8014.8
2015-Apr-21 11:10N 12°24' W 017°30'  
2015-Apr-16 09:31N 29°21' W 013°59'59215.6
2015-Apr-14 19:33N 36°01' W 005°21'21315.2
2015-Apr-14 05:32N 37°09' W 001°10'1717.5
2015-Apr-14 04:33N 37°20' W 000°54'1817.9
2015-Apr-14 03:33N 37°32' W 000°37'1817.5
2015-Apr-14 02:33N 37°46' W 000°23'1817.7
2015-Apr-14 01:33N 38°01' W 000°11'2217.6
2015-Apr-14 00:19N 38°19' E 000°04'1417.8
2015-Apr-13 23:31N 38°31' E 000°14'56 9.3
2015-Apr-13 17:29N 39°23' W 000°13'6 2.8
2015-Apr-13 15:30N 39°26' W 000°19'0 0.0
2015-Apr-13 14:29N 39°26' W 000°19'0 0.0
2015-Apr-13 13:29N 39°26' W 000°19'0 0.0
2015-Apr-13 12:28N 39°26' W 000°19'0 0.0
2015-Apr-13 11:28N 39°26' W 000°19'0 0.0
2015-Apr-13 10:27N 39°26' W 000°19'0 0.0
2015-Apr-13 08:24N 39°26' W 000°19'0 0.0
2015-Apr-13 07:32N 39°26' W 000°19'0 0.0
2015-Apr-13 05:31N 39°26' W 000°19'0 0.0
2015-Apr-13 04:31N 39°26' W 000°19'0 0.3
2015-Apr-13 03:23N 39°26' W 000°19'0 0.0
2015-Apr-13 02:32N 39°26' W 000°19'0 0.0
2015-Apr-13 01:31N 39°26' W 000°19'0 0.0
2015-Apr-13 00:31N 39°26' W 000°19'0 0.0
2015-Apr-12 23:31N 39°26' W 000°19'0 0.0
2015-Apr-12 22:33N 39°26' W 000°19'0 0.0
2015-Apr-12 21:33N 39°26' W 000°19'0 0.0
2015-Apr-12 20:26N 39°26' W 000°19'0 0.0
2015-Apr-12 19:32N 39°26' W 000°19'0 0.0
2015-Apr-12 18:31N 39°26' W 000°19'0 0.0
2015-Apr-12 17:31N 39°26' W 000°19'4 3.9
2015-Apr-12 16:34N 39°26' W 000°15'1514.5
2015-Apr-12 15:33N 39°33' E 000°01'  

Dump ship's entire track history